BIVM

Vestmannaeyjar Airport

Vestmannaeyjar, Iceland

BIVM 111700Z 11020G30KT 9999 SCT036 02/M01 Q0998 R12/390045 RMK BA RWY12 A47 B44 C44

Observed Flight Rules
Dec-11 @ 17:00 UTC (6 hours ago) Visual Flight Rules
Wind Visibility Clouds
110° at 20 knots
 Gusting to 30 knots
10,000+ meters
  • Scattered at 3,600' AGL
Temperatures Readings
Current 2°C / 36°F
Dewpoint -1°C / 30°F
Humidity 81%
Altimeter 29.47" Hg
Pressure 998 hPa
Elevation 124
Observed Flight Rules
Dec-11 @ 17:00 UTC
(6 hours ago)
VFR
Wind Visibility
110° at 20 knots
 Gusting to 30 knots
10,000+ meters
Clouds
  • Scattered at 3,600' AGL
Temperature Dewpoint
2°C / 36°F -1°C / 30°F
Humidity Altimeter Pressure
81% 29.47" Hg 998 hPa